createdAt,value
2023-02-03T00:01:30.989Z,1.98
2023-02-03T00:03:58.487Z,1.77
2023-02-03T00:06:25.540Z,1.80
2023-02-03T00:08:55.205Z,2.03
2023-02-03T00:11:21.990Z,1.90
2023-02-03T00:13:48.396Z,1.67
2023-02-03T00:16:21.214Z,1.73
2023-02-03T00:18:47.708Z,1.55
2023-02-03T00:21:15.141Z,1.70
2023-02-03T00:23:48.608Z,1.42
2023-02-03T00:26:17.910Z,2.00
2023-02-03T00:28:44.744Z,1.70
2023-02-03T00:31:16.982Z,2.00
2023-02-03T00:33:47.687Z,2.27
2023-02-03T00:36:18.064Z,1.70
2023-02-03T00:38:44.380Z,1.70
2023-02-03T00:41:37.743Z,1.40
2023-02-03T00:44:06.200Z,1.83
2023-02-03T00:46:36.170Z,1.50
2023-02-03T00:49:04.016Z,1.30
2023-02-03T00:51:43.611Z,1.50
2023-02-03T00:54:10.986Z,1.85
2023-02-03T00:56:37.414Z,2.17
2023-02-03T00:59:03.807Z,1.50
2023-02-03T01:01:30.403Z,1.50
2023-02-03T01:03:57.073Z,1.83
2023-02-03T01:06:40.309Z,1.60
2023-02-03T01:09:19.187Z,1.55
2023-02-03T01:11:58.818Z,1.30
2023-02-03T01:14:25.247Z,1.10
2023-02-03T01:17:10.215Z,1.65
2023-02-03T01:19:53.479Z,1.60
2023-02-03T01:22:20.207Z,1.30
2023-02-03T01:24:47.787Z,1.63
2023-02-03T01:27:14.496Z,1.90
2023-02-03T01:29:40.903Z,1.80
2023-02-03T01:32:12.425Z,2.22
2023-02-03T01:34:38.998Z,1.45
2023-02-03T01:37:09.561Z,1.60
2023-02-03T01:39:37.196Z,1.23
2023-02-03T01:42:13.827Z,1.52
2023-02-03T01:44:53.770Z,1.60
2023-02-03T01:47:55.229Z,1.65
2023-02-03T01:50:21.610Z,1.40
2023-02-03T01:52:57.068Z,1.30
2023-02-03T01:55:42.886Z,1.35
2023-02-03T01:58:24.750Z,1.60
2023-02-03T02:00:55.754Z,1.50
2023-02-03T02:03:27.208Z,1.20
2023-02-03T02:09:44.867Z,1.23
2023-02-03T02:12:13.425Z,1.50
2023-02-03T02:14:42.278Z,1.00
2023-02-03T02:17:23.899Z,1.07
2023-02-03T02:20:25.925Z,1.27
2023-02-03T02:23:01.879Z,1.27
2023-02-03T02:25:31.278Z,1.00
2023-02-03T02:28:36.353Z,1.33
2023-02-03T02:31:39.954Z,1.17
2023-02-03T02:34:40.436Z,0.73
2023-02-03T02:37:25.650Z,1.92
2023-02-03T02:40:18.361Z,1.40
2023-02-03T02:43:05.171Z,1.00
2023-02-03T02:45:46.334Z,1.30
2023-02-03T02:48:47.607Z,0.95
2023-02-03T02:51:41.172Z,1.08
2023-02-03T02:54:13.856Z,1.80
2023-02-03T02:56:46.805Z,1.73
2023-02-03T02:59:14.898Z,1.10
2023-02-03T03:01:41.454Z,0.82
2023-02-03T03:04:10.482Z,0.80
2023-02-03T03:06:53.899Z,1.00
2023-02-03T03:09:27.209Z,1.00
2023-02-03T03:12:04.472Z,1.23
2023-02-03T03:14:44.948Z,0.63
2023-02-03T03:17:16.959Z,1.48
2023-02-03T03:19:50.163Z,0.98
2023-02-03T03:22:19.958Z,0.85
2023-02-03T03:24:52.516Z,0.80
2023-02-03T03:27:29.060Z,0.88
2023-02-03T03:29:55.607Z,1.00
2023-02-03T03:32:25.220Z,0.75
2023-02-03T03:34:57.560Z,1.05
2023-02-03T03:37:34.095Z,0.77
2023-02-03T03:40:27.549Z,0.70
2023-02-03T03:43:01.308Z,0.80
2023-02-03T03:46:01.744Z,1.25
2023-02-03T03:48:34.215Z,1.02
2023-02-03T03:51:06.724Z,0.63
2023-02-03T03:53:49.059Z,1.00
2023-02-03T03:56:21.112Z,1.13
2023-02-03T03:58:54.784Z,0.80
2023-02-03T04:01:23.792Z,0.90
2023-02-03T04:03:55.485Z,1.00
2023-02-03T04:06:25.064Z,0.75
2023-02-03T04:08:51.425Z,1.10
2023-02-03T04:11:37.799Z,1.30
2023-02-03T04:14:31.149Z,1.00
2023-02-03T04:16:58.628Z,0.90
2023-02-03T04:19:25.474Z,0.80
2023-02-03T04:22:08.442Z,1.00
2023-02-03T04:24:48.268Z,1.00
2023-02-03T04:27:14.627Z,0.95
2023-02-03T04:29:47.589Z,0.80
2023-02-03T04:32:13.952Z,0.85
2023-02-03T04:34:47.333Z,0.88
2023-02-03T04:37:26.746Z,1.40
2023-02-03T04:39:56.016Z,0.70
2023-02-03T04:42:23.412Z,0.60
2023-02-03T04:44:56.098Z,0.73
2023-02-03T04:47:22.550Z,1.17
2023-02-03T04:49:49.000Z,0.80
2023-02-03T04:52:15.487Z,1.00
2023-02-03T04:54:51.086Z,0.83
2023-02-03T04:57:17.503Z,0.80
2023-02-03T04:59:50.958Z,0.95
2023-02-03T05:02:17.411Z,1.00
2023-02-03T05:04:49.830Z,1.00
2023-02-03T05:07:28.621Z,0.50
2023-02-03T05:09:58.172Z,0.93
2023-02-03T05:12:24.525Z,1.20
2023-02-03T05:14:51.970Z,0.70
2023-02-03T05:17:40.244Z,1.52
2023-02-03T05:21:03.616Z,0.60
2023-02-03T05:23:47.134Z,0.95
2023-02-03T05:26:13.501Z,0.70
2023-02-03T05:28:39.887Z,0.75
2023-02-03T05:31:17.568Z,1.30
2023-02-03T05:33:43.970Z,0.97
2023-02-03T05:36:10.350Z,0.88
2023-02-03T05:38:42.519Z,1.17
2023-02-03T05:41:31.523Z,0.80
2023-02-03T05:43:57.908Z,0.93
2023-02-03T05:46:47.465Z,0.87
2023-02-03T05:49:14.082Z,1.10
2023-02-03T05:51:44.176Z,1.17
2023-02-03T05:54:38.553Z,1.02
2023-02-03T05:57:04.897Z,1.35
2023-02-03T05:59:31.262Z,1.00
2023-02-03T06:01:58.633Z,0.93
2023-02-03T06:04:25.111Z,1.42
2023-02-03T06:06:51.551Z,1.15
2023-02-03T06:09:17.970Z,0.80
2023-02-03T06:11:58.658Z,0.70
2023-02-03T06:14:25.083Z,0.80
2023-02-03T06:17:11.020Z,1.60
2023-02-03T06:19:37.414Z,0.80
2023-02-03T06:22:04.775Z,0.90
2023-02-03T06:24:31.305Z,0.90
2023-02-03T06:26:58.773Z,1.00
2023-02-03T06:29:47.740Z,1.58
2023-02-03T06:32:14.146Z,1.15
2023-02-03T06:34:44.992Z,1.00
2023-02-03T06:37:27.430Z,0.70
2023-02-03T06:39:57.939Z,0.88
2023-02-03T06:42:26.416Z,1.20
2023-02-03T06:44:53.606Z,0.88
2023-02-03T06:47:20.008Z,1.30
2023-02-03T06:49:46.384Z,1.27
2023-02-03T06:52:12.766Z,1.00
2023-02-03T06:54:41.615Z,0.90
2023-02-03T06:57:07.991Z,0.98
2023-02-03T06:59:34.342Z,1.27
2023-02-03T07:02:01.813Z,0.80
2023-02-03T07:04:30.162Z,1.23
2023-02-03T07:06:57.611Z,1.95
2023-02-03T07:09:24.188Z,1.00
2023-02-03T07:11:50.656Z,1.02
2023-02-03T07:14:17.271Z,1.07
2023-02-03T07:16:43.715Z,1.13
2023-02-03T07:19:10.110Z,0.73
2023-02-03T07:22:10.529Z,0.93
2023-02-03T07:24:37.101Z,1.17
2023-02-03T07:27:04.691Z,0.80
2023-02-03T07:29:31.189Z,1.25
2023-02-03T07:32:02.713Z,1.20
2023-02-03T07:34:29.716Z,1.00
2023-02-03T07:36:57.008Z,1.10
2023-02-03T07:39:27.444Z,0.90
2023-02-03T07:41:53.799Z,1.20
2023-02-03T07:44:20.171Z,0.80
2023-02-03T07:46:46.658Z,0.93
2023-02-03T07:49:24.290Z,1.20
2023-02-03T07:51:50.735Z,1.10
2023-02-03T07:54:17.254Z,0.82
2023-02-03T07:56:43.624Z,1.05
2023-02-03T07:59:10.203Z,1.10
2023-02-03T08:01:37.541Z,1.15
2023-02-03T08:04:05.600Z,1.03
2023-02-03T08:06:32.201Z,1.00
2023-02-03T08:09:00.653Z,1.70
2023-02-03T08:11:27.097Z,1.05
2023-02-03T08:13:55.546Z,0.95
2023-02-03T08:16:22.139Z,1.10
2023-02-03T08:18:48.523Z,1.08
2023-02-03T08:21:32.015Z,1.15
2023-02-03T08:23:58.418Z,1.10
2023-02-03T08:26:24.847Z,1.10
2023-02-03T08:28:59.333Z,1.03
2023-02-03T08:31:25.887Z,1.02
2023-02-03T08:34:30.641Z,1.00
2023-02-03T08:36:57.033Z,1.48
2023-02-03T08:39:30.802Z,0.90
2023-02-03T08:42:05.414Z,1.20
2023-02-03T08:44:34.156Z,1.13
2023-02-03T08:47:01.699Z,1.52
2023-02-03T08:49:29.847Z,1.52
2023-02-03T08:51:58.604Z,1.40
2023-02-03T08:54:40.657Z,1.20
2023-02-03T08:57:10.368Z,1.55
2023-02-03T08:59:42.154Z,0.85
2023-02-03T09:02:14.264Z,1.00
2023-02-03T09:04:46.082Z,1.38
2023-02-03T09:07:13.394Z,1.63
2023-02-03T09:09:39.983Z,1.23
2023-02-03T09:12:07.071Z,1.20
2023-02-03T09:14:34.141Z,1.08
2023-02-03T09:17:14.854Z,1.20
2023-02-03T09:19:51.643Z,2.00
2023-02-03T09:22:18.197Z,1.30
2023-02-03T09:25:01.401Z,1.02
2023-02-03T09:27:40.314Z,1.65
2023-02-03T09:30:07.147Z,1.55
2023-02-03T09:32:34.071Z,1.07
2023-02-03T09:35:00.478Z,1.52
2023-02-03T09:37:35.230Z,1.90
2023-02-03T09:40:05.431Z,1.38
2023-02-03T09:42:51.139Z,1.20
2023-02-03T09:45:26.244Z,1.27
2023-02-03T09:48:05.996Z,1.20
2023-02-03T09:50:36.199Z,1.55
2023-02-03T09:53:12.222Z,1.00
2023-02-03T09:55:46.207Z,1.30
2023-02-03T09:58:15.562Z,1.17
2023-02-03T10:00:46.783Z,1.10
2023-02-03T10:03:36.926Z,2.10
2023-02-03T10:06:13.832Z,1.00
2023-02-03T10:09:01.445Z,1.58
2023-02-03T10:11:39.920Z,1.00
2023-02-03T10:14:20.079Z,0.95
2023-02-03T10:16:54.992Z,1.15
2023-02-03T10:19:27.205Z,1.70
2023-02-03T10:21:58.421Z,1.30
2023-02-03T10:24:45.864Z,0.93
2023-02-03T10:27:20.545Z,0.95
2023-02-03T10:29:56.835Z,1.23
2023-02-03T10:32:26.400Z,1.13
2023-02-03T10:34:55.222Z,1.00
2023-02-03T10:37:42.790Z,1.10
2023-02-03T10:40:13.713Z,1.00
2023-02-03T10:42:58.803Z,1.27
2023-02-03T10:45:38.435Z,1.20
2023-02-03T10:48:09.992Z,1.25
2023-02-03T10:50:38.583Z,1.50
2023-02-03T10:53:25.005Z,1.45
2023-02-03T10:56:04.221Z,0.95
2023-02-03T10:58:34.424Z,1.00
2023-02-03T11:01:12.801Z,1.02
2023-02-03T11:03:44.692Z,0.70
2023-02-03T11:06:14.864Z,1.17
2023-02-03T11:08:44.556Z,1.45
2023-02-03T11:11:28.643Z,1.42
2023-02-03T11:14:10.114Z,1.42
2023-02-03T11:16:39.445Z,0.90
2023-02-03T11:19:20.798Z,1.40
2023-02-03T11:21:53.957Z,1.20
2023-02-03T11:24:26.606Z,1.20
2023-02-03T11:27:04.838Z,1.50
2023-02-03T11:29:34.527Z,1.27
2023-02-03T11:32:18.411Z,1.10
2023-02-03T11:35:00.937Z,1.85
2023-02-03T11:37:39.383Z,1.67
2023-02-03T11:40:23.490Z,2.40
2023-02-03T11:42:49.790Z,1.30
2023-02-03T11:45:41.959Z,1.20
2023-02-03T11:48:29.475Z,1.55
2023-02-03T11:51:23.613Z,0.98
2023-02-03T11:53:59.175Z,1.10
2023-02-03T11:56:31.390Z,1.30
2023-02-03T11:59:03.539Z,1.35
2023-02-03T12:01:49.342Z,1.40
2023-02-03T12:04:28.192Z,1.10
2023-02-03T12:07:21.990Z,1.60
2023-02-03T12:10:06.778Z,1.13
2023-02-03T12:12:48.947Z,1.52
2023-02-03T12:16:00.945Z,1.65
2023-02-03T12:18:56.218Z,1.27
2023-02-03T12:21:37.142Z,1.17
2023-02-03T12:24:41.188Z,1.20
2023-02-03T12:27:17.349Z,1.35
2023-02-03T12:29:52.586Z,1.10
2023-02-03T12:32:37.420Z,1.40
2023-02-03T12:35:16.090Z,1.58
2023-02-03T12:38:02.242Z,1.40
2023-02-03T12:40:43.997Z,1.27
2023-02-03T12:43:24.296Z,1.73
2023-02-03T12:46:03.144Z,1.23
2023-02-03T12:48:54.707Z,1.80
2023-02-03T12:51:33.454Z,2.20
2023-02-03T12:54:19.899Z,1.60
2023-02-03T12:56:51.367Z,1.80
2023-02-03T12:59:26.586Z,1.63
2023-02-03T13:02:13.774Z,1.83
2023-02-03T13:04:49.419Z,2.17
2023-02-03T13:07:29.086Z,2.30
2023-02-03T13:10:05.667Z,1.92
2023-02-03T13:12:41.075Z,1.65
2023-02-03T13:15:23.762Z,2.10
2023-02-03T13:18:09.377Z,1.80
2023-02-03T13:20:39.233Z,1.75
2023-02-03T13:23:13.415Z,1.75
2023-02-03T13:26:13.619Z,2.45
2023-02-03T13:29:14.004Z,2.45
2023-02-03T13:32:10.864Z,1.70
2023-02-03T13:34:47.445Z,2.20
2023-02-03T13:37:34.303Z,1.83
2023-02-03T13:40:23.540Z,1.75
2023-02-03T13:43:06.005Z,2.08
2023-02-03T13:45:38.526Z,2.17
2023-02-03T13:48:22.191Z,2.17
2023-02-03T13:50:51.474Z,1.92
2023-02-03T13:53:24.656Z,2.13
2023-02-03T13:56:02.044Z,2.08
2023-02-03T13:58:35.177Z,1.73
2023-02-03T14:01:39.896Z,1.38
2023-02-03T14:04:28.287Z,2.50
2023-02-03T14:06:58.008Z,1.98
2023-02-03T14:09:30.371Z,2.10
2023-02-03T14:12:18.127Z,1.80
2023-02-03T14:15:03.182Z,2.00
2023-02-03T14:17:35.541Z,2.20
2023-02-03T14:20:25.412Z,2.05
2023-02-03T14:22:57.977Z,2.80
2023-02-03T14:25:26.967Z,1.77
2023-02-03T14:28:07.406Z,2.60
2023-02-03T14:30:53.893Z,1.48
2023-02-03T14:33:25.667Z,1.52
2023-02-03T14:35:52.145Z,2.47
2023-02-03T14:38:18.601Z,1.83
2023-02-03T14:40:57.643Z,1.85
2023-02-03T14:43:49.661Z,2.03
2023-02-03T14:46:32.799Z,1.75
2023-02-03T14:49:13.081Z,1.75
2023-02-03T14:52:17.588Z,2.27
2023-02-03T14:54:56.113Z,2.65
2023-02-03T14:57:40.299Z,3.00
2023-02-03T15:00:13.858Z,2.85
2023-02-03T15:03:09.276Z,2.53
2023-02-03T15:05:51.115Z,1.67
2023-02-03T15:08:40.933Z,1.90
2023-02-03T15:11:23.009Z,1.60
2023-02-03T15:13:49.528Z,1.42
2023-02-03T15:16:20.095Z,1.90
2023-02-03T15:18:54.482Z,1.43
2023-02-03T15:21:20.892Z,2.45
2023-02-03T15:23:49.327Z,2.50
2023-02-03T15:26:23.367Z,1.92
2023-02-03T15:29:04.552Z,1.60
2023-02-03T15:31:37.333Z,2.17
2023-02-03T15:34:18.554Z,2.47
2023-02-03T15:36:49.722Z,2.10
2023-02-03T15:39:23.342Z,1.88
2023-02-03T15:41:54.639Z,1.63
2023-02-03T15:44:43.180Z,1.90
2023-02-03T15:47:42.685Z,2.05
2023-02-03T15:50:24.267Z,2.20
2023-02-03T15:52:53.294Z,2.05
2023-02-03T15:55:31.741Z,2.25
2023-02-03T15:57:58.742Z,1.90
2023-02-03T16:00:40.322Z,2.25
2023-02-03T16:03:19.663Z,2.17
2023-02-03T16:05:49.508Z,1.70
2023-02-03T16:08:36.357Z,2.15
2023-02-03T16:11:37.606Z,1.90
2023-02-03T16:14:10.689Z,1.75
2023-02-03T16:16:55.241Z,2.47
2023-02-03T16:19:32.469Z,1.90
2023-02-03T16:22:02.201Z,2.65
2023-02-03T16:24:38.131Z,2.23
2023-02-03T16:27:26.687Z,3.83
2023-02-03T16:30:13.443Z,2.63
2023-02-03T16:32:58.719Z,1.70
2023-02-03T16:35:43.779Z,2.20
2023-02-03T16:38:36.422Z,2.50
2023-02-03T16:41:30.847Z,2.25
2023-02-03T16:44:15.812Z,2.38
2023-02-03T16:47:06.245Z,2.42
2023-02-03T16:49:51.072Z,1.95
2023-02-03T16:52:17.452Z,1.80
2023-02-03T16:54:43.810Z,3.25
2023-02-03T16:57:10.168Z,1.83
2023-02-03T16:59:36.646Z,1.33
2023-02-03T17:02:03.174Z,2.33
2023-02-03T17:04:29.604Z,2.53
2023-02-03T17:06:55.941Z,2.88
2023-02-03T17:09:24.915Z,2.60
2023-02-03T17:11:51.677Z,2.42
2023-02-03T17:14:18.083Z,2.92
2023-02-03T17:16:44.498Z,3.37
2023-02-03T17:19:12.333Z,3.10
2023-02-03T17:21:39.315Z,3.60
2023-02-03T17:24:06.305Z,3.40
2023-02-03T17:26:34.257Z,3.17
2023-02-03T17:29:03.247Z,2.60
2023-02-03T17:31:30.569Z,3.20
2023-02-03T17:33:57.768Z,3.65
2023-02-03T17:36:24.474Z,2.35
2023-02-03T17:55:19.347Z,2.27
2023-02-03T17:57:45.725Z,2.25
2023-02-03T18:00:12.754Z,3.17
2023-02-03T18:02:39.572Z,2.42
2023-02-03T18:05:06.349Z,3.60
2023-02-03T18:07:32.730Z,2.83
2023-02-03T18:09:59.176Z,2.78
2023-02-03T18:12:25.695Z,3.30
2023-02-03T18:14:52.135Z,2.35
2023-02-03T18:17:18.491Z,2.75
2023-02-03T18:19:51.875Z,2.07
2023-02-03T18:22:18.535Z,1.92
2023-02-03T18:24:50.703Z,2.22
2023-02-03T18:27:17.357Z,2.92
2023-02-03T18:29:45.174Z,3.40
2023-02-03T18:32:12.527Z,2.63
2023-02-03T18:34:39.317Z,2.83
2023-02-03T18:37:05.760Z,2.78
2023-02-03T18:39:32.169Z,2.75
2023-02-03T18:41:58.566Z,2.83
2023-02-03T18:44:27.002Z,2.90
2023-02-03T18:46:54.558Z,2.92
2023-02-03T18:49:21.191Z,3.10
2023-02-03T18:51:47.588Z,3.65
2023-02-03T18:54:14.057Z,3.33
2023-02-03T18:56:40.468Z,3.67
2023-02-03T18:59:09.977Z,2.65
2023-02-03T19:01:38.728Z,2.75
2023-02-03T19:04:05.938Z,3.17
2023-02-03T19:06:33.989Z,3.70
2023-02-03T19:09:00.988Z,3.77
2023-02-03T19:11:27.732Z,3.22
2023-02-03T19:13:54.212Z,3.42
2023-02-03T19:16:20.591Z,2.90
2023-02-03T19:18:47.405Z,2.92
2023-02-03T19:21:14.708Z,2.77
2023-02-03T19:23:42.158Z,3.72
2023-02-03T19:26:09.929Z,4.80
2023-02-03T19:28:37.086Z,4.68
2023-02-03T19:31:08.852Z,3.28
2023-02-03T19:33:36.494Z,2.73
2023-02-03T19:36:06.732Z,2.83
2023-02-03T19:38:33.442Z,3.28
2023-02-03T19:41:01.672Z,2.85
2023-02-03T19:43:29.539Z,3.08
2023-02-03T19:45:55.932Z,3.20
2023-02-03T19:48:22.417Z,3.60
2023-02-03T19:50:49.266Z,4.53
2023-02-03T19:53:17.541Z,3.42
2023-02-03T19:55:45.165Z,3.45
2023-02-03T19:58:12.788Z,3.33
2023-02-03T20:00:39.961Z,3.50
2023-02-03T20:03:06.403Z,3.30
2023-02-03T20:05:33.778Z,5.03
2023-02-03T20:08:00.258Z,5.13
2023-02-03T20:10:26.722Z,3.70
2023-02-03T20:12:54.679Z,4.47
2023-02-03T20:15:21.816Z,4.00
2023-02-03T20:17:48.209Z,3.75
2023-02-03T20:20:16.433Z,3.38
2023-02-03T20:22:42.791Z,2.67
2023-02-03T20:25:09.173Z,4.38
2023-02-03T20:27:35.681Z,4.07
2023-02-03T20:30:03.009Z,2.65
2023-02-03T20:32:29.753Z,2.72
2023-02-03T20:34:56.137Z,3.13
2023-02-03T20:37:22.533Z,4.15
2023-02-03T20:39:48.898Z,3.10
2023-02-03T20:42:17.791Z,3.30
2023-02-03T20:44:44.873Z,3.03
2023-02-03T20:47:19.250Z,2.77
2023-02-03T20:49:45.830Z,3.15
2023-02-03T20:52:15.931Z,3.05
2023-02-03T20:54:42.620Z,2.78
2023-02-03T20:57:14.790Z,3.35
2023-02-03T20:59:41.422Z,3.50
2023-02-03T21:02:33.627Z,2.75
2023-02-03T21:05:02.223Z,3.78
2023-02-03T21:07:30.813Z,3.55
2023-02-03T21:09:59.942Z,3.95
2023-02-03T21:12:28.453Z,3.33
2023-02-03T21:14:55.226Z,3.58
2023-02-03T21:17:26.658Z,2.92
2023-02-03T21:19:54.383Z,3.20
2023-02-03T21:22:23.676Z,3.92
2023-02-03T21:25:01.284Z,3.10
2023-02-03T21:27:34.788Z,3.05
2023-02-03T21:30:21.226Z,3.25
2023-02-03T21:32:47.619Z,2.72
2023-02-03T21:35:34.300Z,3.80
2023-02-03T21:38:02.762Z,2.63
2023-02-03T21:40:34.709Z,3.17
2023-02-03T21:43:03.912Z,3.00
2023-02-03T21:45:35.507Z,2.25
2023-02-03T21:48:23.353Z,3.22
2023-02-03T21:50:50.024Z,2.57
2023-02-03T21:53:24.768Z,2.17
2023-02-03T21:55:51.223Z,1.92
2023-02-03T21:58:25.162Z,1.73
2023-02-03T22:01:02.698Z,2.75
2023-02-03T22:03:40.739Z,1.97
2023-02-03T22:06:20.143Z,1.70
2023-02-03T22:08:48.647Z,1.92
2023-02-03T22:11:23.412Z,1.50
2023-02-03T22:13:51.272Z,2.00
2023-02-03T22:16:25.694Z,1.87
2023-02-03T22:19:01.332Z,1.67
2023-02-03T22:21:27.767Z,2.13
2023-02-03T22:24:01.301Z,2.13
2023-02-03T22:26:28.113Z,2.13
2023-02-03T22:28:54.537Z,1.90
2023-02-03T22:31:21.479Z,2.13
2023-02-03T22:33:48.584Z,1.65
2023-02-03T22:36:17.036Z,1.83
2023-02-03T22:38:43.657Z,2.38
2023-02-03T22:41:14.002Z,2.03
2023-02-03T22:43:42.568Z,1.95
2023-02-03T22:46:47.332Z,2.80
2023-02-03T22:49:13.738Z,1.80
2023-02-03T22:51:40.250Z,1.90
2023-02-03T22:54:08.731Z,2.00
2023-02-03T22:56:35.175Z,2.25
2023-02-03T22:59:03.620Z,2.70
2023-02-03T23:01:31.252Z,2.05
2023-02-03T23:03:57.605Z,2.70
2023-02-03T23:06:23.967Z,2.80
2023-02-03T23:08:52.830Z,2.70
2023-02-03T23:11:19.510Z,2.67
2023-02-03T23:13:46.005Z,1.83
2023-02-03T23:16:14.734Z,1.63
2023-02-03T23:18:41.146Z,1.87
2023-02-03T23:21:29.634Z,1.10
2023-02-03T23:24:03.141Z,1.42
2023-02-03T23:26:29.567Z,1.60
2023-02-03T23:29:02.245Z,2.03
2023-02-03T23:31:28.881Z,1.73
2023-02-03T23:34:24.196Z,1.52
2023-02-03T23:36:50.545Z,2.42
2023-02-03T23:39:32.422Z,1.35
2023-02-03T23:41:58.888Z,1.58
2023-02-03T23:44:25.265Z,1.70
2023-02-03T23:46:51.740Z,1.50
2023-02-03T23:49:25.231Z,1.67
2023-02-03T23:51:51.726Z,1.67
2023-02-03T23:54:18.192Z,1.60
2023-02-03T23:56:48.842Z,1.63
2023-02-03T23:59:15.363Z,2.00
